createdAt,value
2022-08-18T00:01:16.379Z,7.30
2022-08-18T00:03:56.367Z,6.87
2022-08-18T00:06:29.147Z,8.00
2022-08-18T00:08:59.091Z,7.03
2022-08-18T00:11:27.912Z,8.20
2022-08-18T00:13:57.179Z,7.90
2022-08-18T00:16:25.184Z,8.17
2022-08-18T00:18:53.047Z,7.33
2022-08-18T00:21:21.422Z,7.80
2022-08-18T00:23:49.307Z,8.00
2022-08-18T00:26:17.392Z,7.07
2022-08-18T00:28:45.271Z,6.90
2022-08-18T00:31:14.516Z,7.73
2022-08-18T00:33:43.631Z,7.63
2022-08-18T00:36:11.952Z,7.40
2022-08-18T00:38:40.747Z,6.93
2022-08-18T00:41:10.085Z,6.80
2022-08-18T00:43:42.602Z,7.00
2022-08-18T00:46:13.744Z,7.03
2022-08-18T00:48:48.901Z,6.83
2022-08-18T00:51:21.697Z,7.40
2022-08-18T00:53:58.417Z,7.10
2022-08-18T00:56:33.727Z,7.60
2022-08-18T00:59:07.297Z,7.60
2022-08-18T01:01:36.335Z,7.33
2022-08-18T01:04:11.047Z,6.70
2022-08-18T01:06:43.099Z,7.67
2022-08-18T01:09:11.308Z,8.23
2022-08-18T01:11:39.925Z,7.93
2022-08-18T01:14:10.428Z,7.70
2022-08-18T01:16:57.590Z,7.87
2022-08-18T01:19:54.373Z,7.83
2022-08-18T01:22:28.679Z,7.80
2022-08-18T01:25:19.301Z,7.53
2022-08-18T01:27:47.594Z,7.50
2022-08-18T01:30:19.295Z,7.60
2022-08-18T01:32:47.193Z,8.00
2022-08-18T01:35:18.174Z,8.07
2022-08-18T01:37:47.295Z,7.53
2022-08-18T01:41:11.076Z,8.30
2022-08-18T01:43:19.683Z,8.70
2022-08-18T01:45:47.895Z,7.80
2022-08-18T01:48:16.155Z,7.63
2022-08-18T01:50:45.499Z,7.40
2022-08-18T01:53:13.494Z,8.13
2022-08-18T01:55:45.244Z,7.83
2022-08-18T01:58:13.454Z,7.97
2022-08-18T02:00:42.625Z,7.87
2022-08-18T02:03:14.273Z,7.27
2022-08-18T02:05:48.063Z,7.30
2022-08-18T02:08:16.396Z,6.63
2022-08-18T02:10:45.705Z,7.10
2022-08-18T02:13:13.814Z,7.33
2022-08-18T02:15:42.293Z,6.73
2022-08-18T02:18:15.190Z,6.60
2022-08-18T02:20:59.988Z,6.43
2022-08-18T02:23:27.927Z,6.77
2022-08-18T02:25:57.152Z,7.10
2022-08-18T02:28:28.794Z,6.30
2022-08-18T02:30:58.600Z,6.37
2022-08-18T02:33:26.577Z,6.87
2022-08-18T02:35:55.605Z,6.90
2022-08-18T02:38:23.535Z,7.30
2022-08-18T02:40:58.051Z,7.63
2022-08-18T02:43:26.127Z,6.73
2022-08-18T02:45:54.310Z,6.50
2022-08-18T02:48:24.127Z,6.40
2022-08-18T02:50:52.081Z,6.60
2022-08-18T02:53:22.959Z,7.23
2022-08-18T02:55:50.900Z,6.30
2022-08-18T02:58:20.427Z,6.90
2022-08-18T03:00:48.762Z,6.50
2022-08-18T03:03:16.760Z,6.27
2022-08-18T03:05:44.717Z,6.23
2022-08-18T03:08:12.698Z,7.07
2022-08-18T03:10:40.647Z,6.47
2022-08-18T03:13:09.541Z,6.63
2022-08-18T03:15:38.855Z,6.70
2022-08-18T03:18:06.942Z,6.97
2022-08-18T03:20:36.957Z,6.70
2022-08-18T03:23:09.776Z,6.50
2022-08-18T03:25:45.344Z,6.97
2022-08-18T03:28:13.418Z,6.80
2022-08-18T03:30:43.265Z,7.00
2022-08-18T03:33:11.537Z,6.60
2022-08-18T03:35:40.995Z,7.60
2022-08-18T03:38:09.459Z,6.40
2022-08-18T03:40:37.568Z,7.70
2022-08-18T03:43:23.795Z,6.60
2022-08-18T03:45:56.354Z,7.20
2022-08-18T03:48:25.307Z,6.87
2022-08-18T03:50:53.196Z,6.67
2022-08-18T03:53:21.094Z,7.27
2022-08-18T03:55:48.966Z,7.10
2022-08-18T03:58:16.893Z,7.77
2022-08-18T04:00:44.806Z,7.30
2022-08-18T04:03:14.017Z,7.00
2022-08-18T04:05:42.047Z,7.07
2022-08-18T04:08:10.058Z,6.57
2022-08-18T04:10:37.974Z,7.13
2022-08-18T04:13:06.442Z,7.90
2022-08-18T04:15:34.681Z,8.20
2022-08-18T04:18:04.509Z,8.10
2022-08-18T04:20:33.932Z,7.40
2022-08-18T04:23:02.296Z,8.17
2022-08-18T04:25:33.163Z,7.97
2022-08-18T04:28:03.420Z,8.13
2022-08-18T04:30:31.555Z,7.13
2022-08-18T04:32:59.438Z,8.10
2022-08-18T04:35:29.125Z,8.27
2022-08-18T04:37:58.425Z,8.00
2022-08-18T04:40:27.260Z,7.97
2022-08-18T04:42:55.258Z,8.10
2022-08-18T04:45:23.149Z,7.80
2022-08-18T04:47:51.634Z,8.10
2022-08-18T04:50:20.345Z,8.13
2022-08-18T04:53:06.157Z,7.77
2022-08-18T04:55:35.384Z,8.80
2022-08-18T04:58:03.368Z,7.10
2022-08-18T05:00:31.225Z,7.23
2022-08-18T05:02:59.101Z,7.67
2022-08-18T05:05:27.535Z,7.93
2022-08-18T05:07:56.336Z,8.07
2022-08-18T05:10:24.283Z,7.77
2022-08-18T05:12:53.477Z,7.70
2022-08-18T05:15:21.523Z,7.23
2022-08-18T05:17:50.865Z,7.83
2022-08-18T05:20:19.750Z,7.33
2022-08-18T05:22:47.708Z,8.00
2022-08-18T05:25:16.116Z,7.87
2022-08-18T05:27:45.057Z,7.00
2022-08-18T05:30:15.191Z,8.30
2022-08-18T05:32:49.060Z,7.30
2022-08-18T05:35:23.051Z,7.40
2022-08-18T05:38:06.998Z,7.93
2022-08-18T05:40:36.700Z,7.67
2022-08-18T05:43:06.830Z,8.90
2022-08-18T05:45:36.670Z,7.83
2022-08-18T05:48:05.067Z,8.33
2022-08-18T05:50:36.344Z,8.23
2022-08-18T05:53:13.271Z,7.67
2022-08-18T05:56:05.214Z,7.97
2022-08-18T05:58:38.292Z,8.00
2022-08-18T06:01:12.989Z,8.20
2022-08-18T06:03:48.778Z,8.43
2022-08-18T06:06:19.753Z,8.10
2022-08-18T06:08:53.719Z,7.57
2022-08-18T06:11:22.871Z,7.90
2022-08-18T06:13:54.256Z,8.50
2022-08-18T06:16:48.981Z,8.67
2022-08-18T06:19:30.836Z,8.90
2022-08-18T06:22:08.682Z,7.90
2022-08-18T06:24:44.051Z,9.00
2022-08-18T06:27:18.800Z,8.87
2022-08-18T06:29:57.051Z,8.90
2022-08-18T06:32:41.724Z,8.50
2022-08-18T06:35:19.221Z,8.60
2022-08-18T06:38:11.976Z,8.50
2022-08-18T06:40:39.954Z,9.23
2022-08-18T06:43:14.001Z,9.43
2022-08-18T06:45:44.854Z,10.53
2022-08-18T06:48:20.415Z,10.53
2022-08-18T06:50:53.081Z,10.87
2022-08-18T06:53:28.095Z,10.83
2022-08-18T06:55:57.001Z,10.30
2022-08-18T06:58:29.989Z,11.90
2022-08-18T07:01:01.515Z,11.77
2022-08-18T07:03:46.206Z,10.43
2022-08-18T07:06:28.953Z,10.33
2022-08-18T07:09:22.402Z,11.63
2022-08-18T07:12:02.904Z,10.23
2022-08-18T07:14:30.784Z,11.77
2022-08-18T07:17:09.277Z,12.60
2022-08-18T07:19:37.385Z,11.80
2022-08-18T07:22:08.649Z,13.80
2022-08-18T07:24:42.238Z,12.27
2022-08-18T07:27:12.881Z,12.37
2022-08-18T07:29:59.741Z,12.50
2022-08-18T07:32:32.630Z,12.30
2022-08-18T07:35:03.500Z,13.23
2022-08-18T07:37:36.280Z,12.60
2022-08-18T07:40:20.587Z,11.47
2022-08-18T07:43:00.487Z,12.77
2022-08-18T07:45:34.886Z,12.70
2022-08-18T07:48:27.271Z,12.70
2022-08-18T07:51:06.712Z,12.67
2022-08-18T07:53:54.417Z,15.07
2022-08-18T07:56:37.722Z,12.80
2022-08-18T07:59:13.422Z,11.20
2022-08-18T08:01:49.257Z,11.00
2022-08-18T08:04:29.719Z,11.23
2022-08-18T08:07:31.893Z,10.27
2022-08-18T08:09:59.168Z,11.63
2022-08-18T08:12:37.145Z,12.20
2022-08-18T08:15:14.257Z,11.83
2022-08-18T08:17:54.002Z,12.07
2022-08-18T08:20:32.518Z,12.70
2022-08-18T08:23:17.269Z,12.20
2022-08-18T08:25:56.824Z,11.70
2022-08-18T08:28:34.566Z,12.83
2022-08-18T08:31:33.472Z,11.47
2022-08-18T08:34:06.137Z,11.97
2022-08-18T08:36:39.760Z,11.27
2022-08-18T08:39:12.916Z,13.10
2022-08-18T08:41:46.813Z,11.80
2022-08-18T08:44:22.326Z,11.83
2022-08-18T08:46:55.692Z,12.43
2022-08-18T08:49:36.879Z,13.37
2022-08-18T08:52:12.750Z,12.80
2022-08-18T08:54:47.491Z,12.90
2022-08-18T08:57:16.781Z,12.70
2022-08-18T08:59:50.561Z,13.13
2022-08-18T09:02:48.995Z,13.27
2022-08-18T09:05:20.648Z,13.03
2022-08-18T09:08:04.167Z,13.57
2022-08-18T09:10:52.829Z,12.37
2022-08-18T09:13:42.686Z,13.70
2022-08-18T09:16:20.831Z,14.60
2022-08-18T09:19:05.069Z,13.90
2022-08-18T09:21:41.966Z,14.20
2022-08-18T09:24:20.791Z,14.87
2022-08-18T09:26:53.787Z,15.10
2022-08-18T09:29:26.159Z,13.67
2022-08-18T09:32:32.438Z,14.17
2022-08-18T09:35:12.990Z,13.87
2022-08-18T09:38:11.736Z,15.90
2022-08-18T09:41:06.415Z,14.50
2022-08-18T09:43:39.772Z,14.63
2022-08-18T09:46:08.798Z,13.13
2022-08-18T09:48:43.221Z,14.07
2022-08-18T09:51:40.023Z,14.50
2022-08-18T09:54:21.210Z,13.70
2022-08-18T09:57:27.149Z,14.40
2022-08-18T10:00:28.191Z,14.43
2022-08-18T10:03:14.671Z,14.00
2022-08-18T10:06:13.285Z,14.00
2022-08-18T10:09:26.765Z,13.93
2022-08-18T10:12:23.238Z,15.20
2022-08-18T10:15:33.146Z,14.87
2022-08-18T10:18:38.304Z,14.50
2022-08-18T10:21:16.114Z,15.37
2022-08-18T10:24:36.324Z,14.80
2022-08-18T10:27:08.432Z,14.00
2022-08-18T10:29:57.207Z,14.40
2022-08-18T10:32:52.290Z,15.10
2022-08-18T10:35:58.274Z,17.30
2022-08-18T10:38:39.214Z,16.07
2022-08-18T10:41:15.440Z,14.20
2022-08-18T10:43:56.085Z,15.00
2022-08-18T10:46:31.962Z,15.33
2022-08-18T10:49:07.500Z,17.63
2022-08-18T10:51:59.616Z,17.87
2022-08-18T10:57:34.035Z,19.37
2022-08-18T11:00:06.973Z,18.37
2022-08-18T11:03:01.847Z,19.00
2022-08-18T11:05:32.929Z,21.03
2022-08-18T11:08:04.608Z,19.73
2022-08-18T11:11:27.411Z,21.27
2022-08-18T11:13:52.020Z,17.23
2022-08-18T11:16:33.594Z,19.50
2022-08-18T11:19:09.556Z,18.47
2022-08-18T11:21:43.433Z,20.10
2022-08-18T11:24:17.501Z,18.87
2022-08-18T11:26:52.891Z,16.57
2022-08-18T11:29:32.898Z,17.70
2022-08-18T11:32:06.929Z,16.80
2022-08-18T11:34:45.605Z,17.40
2022-08-18T11:37:27.774Z,18.20
2022-08-18T11:40:01.102Z,17.80
2022-08-18T11:42:33.171Z,17.07
2022-08-18T11:45:13.929Z,16.73
2022-08-18T11:48:02.579Z,17.60
2022-08-18T11:50:32.824Z,18.50
2022-08-18T11:53:18.802Z,18.23
2022-08-18T11:56:13.356Z,16.90
2022-08-18T11:58:45.860Z,16.20
2022-08-18T12:01:41.802Z,15.60
2022-08-18T12:04:22.713Z,17.87
2022-08-18T12:07:00.414Z,18.00
2022-08-18T12:12:30.590Z,17.53
2022-08-18T12:15:13.653Z,16.60
2022-08-18T12:17:52.712Z,18.20
2022-08-18T12:20:22.576Z,18.80
2022-08-18T12:22:51.973Z,17.83
2022-08-18T12:28:10.899Z,19.20
2022-08-18T12:30:42.059Z,18.17
2022-08-18T12:36:00.035Z,16.73
2022-08-18T12:38:28.140Z,16.73
2022-08-18T12:40:57.059Z,16.07
2022-08-18T12:43:25.085Z,14.93
2022-08-18T12:46:00.821Z,14.53
2022-08-18T12:48:32.084Z,13.57
2022-08-18T12:51:00.822Z,11.07
2022-08-18T12:53:58.006Z,10.77
2022-08-18T12:56:24.859Z,11.40
2022-08-18T12:58:53.924Z,12.50
2022-08-18T13:01:23.526Z,11.30
2022-08-18T13:04:13.259Z,12.13
2022-08-18T13:06:54.029Z,12.63
2022-08-18T13:09:42.834Z,10.90
2022-08-18T13:12:19.654Z,12.80
2022-08-18T13:14:49.759Z,12.00
2022-08-18T13:17:33.359Z,11.73
2022-08-18T13:20:06.039Z,11.27
2022-08-18T13:22:34.048Z,11.00
2022-08-18T13:25:03.813Z,11.63
2022-08-18T13:27:35.974Z,11.70
2022-08-18T13:30:16.853Z,10.27
2022-08-18T13:33:00.461Z,10.90
2022-08-18T13:35:38.008Z,11.23
2022-08-18T13:38:15.836Z,10.63
2022-08-18T13:40:49.260Z,10.23
2022-08-18T13:43:18.546Z,11.00
2022-08-18T13:45:52.881Z,10.37
2022-08-18T13:48:21.540Z,9.87
2022-08-18T13:50:56.024Z,9.70
2022-08-18T13:53:24.662Z,8.70
2022-08-18T13:55:54.497Z,10.27
2022-08-18T13:58:22.433Z,9.23
2022-08-18T14:00:54.066Z,10.03
2022-08-18T14:03:42.778Z,8.97
2022-08-18T14:06:13.312Z,9.50
2022-08-18T14:08:42.856Z,9.47
2022-08-18T14:11:10.774Z,8.87
2022-08-18T14:13:43.915Z,9.60
2022-08-18T14:16:16.269Z,10.50
2022-08-18T14:19:10.087Z,9.17
2022-08-18T14:22:01.417Z,10.97
2022-08-18T14:24:48.892Z,9.67
2022-08-18T14:27:17.861Z,8.50
2022-08-18T14:29:48.538Z,9.33
2022-08-18T14:32:29.469Z,9.50
2022-08-18T14:35:00.177Z,9.90
2022-08-18T14:37:30.816Z,8.83
2022-08-18T14:40:01.991Z,9.80
2022-08-18T14:42:41.009Z,8.43
2022-08-18T14:45:31.574Z,8.83
2022-08-18T14:48:04.451Z,8.97
2022-08-18T14:50:35.844Z,8.43
2022-08-18T14:53:06.890Z,9.07
2022-08-18T14:55:35.880Z,8.67
2022-08-18T14:58:07.360Z,9.13
2022-08-18T15:00:35.730Z,9.00
2022-08-18T15:03:30.972Z,9.63
2022-08-18T15:06:04.841Z,8.73
2022-08-18T15:08:35.666Z,8.37
2022-08-18T15:11:11.397Z,8.17
2022-08-18T15:13:42.209Z,8.90
2022-08-18T15:16:13.356Z,8.67
2022-08-18T15:18:41.445Z,8.70
2022-08-18T15:21:35.366Z,9.10
2022-08-18T15:24:26.150Z,9.00
2022-08-18T15:26:58.228Z,8.57
2022-08-18T15:29:31.358Z,9.60
2022-08-18T15:32:05.656Z,9.43
2022-08-18T15:34:47.011Z,8.70
2022-08-18T15:37:24.157Z,8.77
2022-08-18T15:40:05.217Z,8.30
2022-08-18T15:42:33.317Z,9.63
2022-08-18T15:45:12.065Z,9.40
2022-08-18T15:47:42.073Z,9.77
2022-08-18T15:50:25.741Z,9.03
2022-08-18T15:52:55.877Z,9.30
2022-08-18T15:55:27.159Z,10.20
2022-08-18T15:57:58.240Z,10.37
2022-08-18T16:00:29.817Z,8.23
2022-08-18T16:03:01.436Z,9.10
2022-08-18T16:05:32.766Z,8.83
2022-08-18T16:08:01.246Z,9.37
2022-08-18T16:10:34.610Z,9.37
2022-08-18T16:13:04.610Z,10.00
2022-08-18T16:15:37.040Z,9.43
2022-08-18T16:18:05.617Z,9.03
2022-08-18T16:20:33.706Z,8.90
2022-08-18T16:23:02.030Z,9.00
2022-08-18T16:25:31.341Z,11.60
2022-08-18T16:27:59.663Z,11.90
2022-08-18T16:30:29.117Z,17.03
2022-08-18T16:33:02.827Z,11.67
2022-08-18T16:35:31.365Z,9.90
2022-08-18T16:38:04.372Z,9.10
2022-08-18T16:40:33.677Z,9.63
2022-08-18T16:43:01.681Z,9.17
2022-08-18T16:45:31.876Z,8.30
2022-08-18T16:47:59.870Z,8.80
2022-08-18T16:50:28.089Z,8.83
2022-08-18T16:52:56.169Z,8.50
2022-08-18T16:55:24.090Z,8.97
2022-08-18T16:58:15.269Z,8.40
2022-08-18T17:01:02.039Z,7.90
2022-08-18T17:03:47.533Z,9.00
2022-08-18T17:06:18.343Z,8.20
2022-08-18T17:08:47.161Z,7.53
2022-08-18T17:11:18.224Z,8.57
2022-08-18T17:13:49.591Z,7.80
2022-08-18T17:16:19.109Z,8.63
2022-08-18T17:18:47.797Z,7.43
2022-08-18T17:21:18.167Z,8.87
2022-08-18T17:23:46.576Z,8.03
2022-08-18T17:26:23.037Z,7.97
2022-08-18T17:28:59.069Z,7.93
2022-08-18T17:31:28.155Z,8.97
2022-08-18T17:34:03.937Z,7.90
2022-08-18T17:36:37.258Z,8.13
2022-08-18T17:39:11.848Z,9.17
2022-08-18T17:42:01.980Z,8.70
2022-08-18T17:44:32.618Z,9.00
2022-08-18T17:47:03.341Z,9.33
2022-08-18T17:50:06.907Z,9.40
2022-08-18T17:52:45.740Z,8.53
2022-08-18T17:55:25.643Z,8.80
2022-08-18T17:57:59.070Z,10.40
2022-08-18T18:00:32.681Z,9.00
2022-08-18T18:03:01.410Z,9.60
2022-08-18T18:05:36.650Z,10.20
2022-08-18T18:08:05.859Z,10.60
2022-08-18T18:10:51.171Z,10.10
2022-08-18T18:13:25.012Z,10.00
2022-08-18T18:15:57.156Z,10.70
2022-08-18T18:18:41.703Z,11.07
2022-08-18T18:21:21.591Z,11.23
2022-08-18T18:23:51.374Z,11.43
2022-08-18T18:26:29.331Z,11.63
2022-08-18T18:29:16.385Z,11.50
2022-08-18T18:31:58.321Z,12.00
2022-08-18T18:34:33.734Z,12.03
2022-08-18T18:37:03.556Z,12.73
2022-08-18T18:39:35.264Z,12.40
2022-08-18T18:42:17.957Z,13.20
2022-08-18T18:44:54.125Z,11.70
2022-08-18T18:47:45.049Z,12.97
2022-08-18T18:50:18.472Z,11.83
2022-08-18T18:52:56.007Z,12.00
2022-08-18T18:55:26.829Z,12.47
2022-08-18T18:58:08.844Z,13.83
2022-08-18T19:00:53.619Z,12.80
2022-08-18T19:03:29.352Z,13.27
2022-08-18T19:06:17.940Z,11.63
2022-08-18T19:08:57.862Z,11.90
2022-08-18T19:11:30.501Z,12.90
2022-08-18T19:14:03.629Z,12.60
2022-08-18T19:16:41.153Z,12.47
2022-08-18T19:19:36.709Z,11.50
2022-08-18T19:22:11.092Z,11.60
2022-08-18T19:24:45.294Z,12.43
2022-08-18T19:27:23.580Z,11.60
2022-08-18T19:29:55.085Z,11.57
2022-08-18T19:32:31.577Z,11.90
2022-08-18T19:35:01.196Z,11.70
2022-08-18T19:37:44.177Z,11.60
2022-08-18T19:40:18.175Z,12.20
2022-08-18T19:42:59.155Z,11.67
2022-08-18T19:45:34.079Z,11.77
2022-08-18T19:48:08.247Z,11.53
2022-08-18T19:50:44.174Z,12.30
2022-08-18T19:53:30.817Z,12.37
2022-08-18T19:56:21.390Z,12.03
2022-08-18T19:59:18.053Z,11.90
2022-08-18T20:02:02.323Z,14.40
2022-08-18T20:04:46.071Z,13.70
2022-08-18T20:07:43.251Z,14.10
2022-08-18T20:10:43.963Z,14.27
2022-08-18T20:13:28.079Z,12.57
2022-08-18T20:16:11.465Z,14.70
2022-08-18T20:18:42.017Z,14.93
2022-08-18T20:21:45.379Z,14.90
2022-08-18T20:24:45.479Z,14.93
2022-08-18T20:27:32.768Z,17.20
2022-08-18T20:30:27.130Z,16.00
2022-08-18T20:33:20.955Z,15.40
2022-08-18T20:35:59.449Z,17.20
2022-08-18T20:38:35.002Z,17.60
2022-08-18T20:41:42.844Z,17.80
2022-08-18T20:44:40.741Z,16.20
2022-08-18T20:47:23.224Z,18.50
2022-08-18T20:50:03.884Z,17.17
2022-08-18T20:52:41.552Z,19.10
2022-08-18T20:55:18.050Z,17.40
2022-08-18T20:57:48.930Z,18.00
2022-08-18T21:00:27.574Z,17.80
2022-08-18T21:02:57.740Z,19.37
2022-08-18T21:05:29.151Z,19.13
2022-08-18T21:08:07.385Z,18.07
2022-08-18T21:10:35.682Z,18.13
2022-08-18T21:13:06.629Z,19.60
2022-08-18T21:15:37.336Z,18.93
2022-08-18T21:18:07.986Z,18.77
2022-08-18T21:20:36.526Z,19.17
2022-08-18T21:23:09.304Z,18.07
2022-08-18T21:25:40.861Z,18.97
2022-08-18T21:28:12.538Z,19.57
2022-08-18T21:30:40.392Z,17.73
2022-08-18T21:33:20.022Z,19.20
2022-08-18T21:35:48.019Z,19.50
2022-08-18T21:38:16.232Z,19.57
2022-08-18T21:40:47.296Z,20.27
2022-08-18T21:43:37.573Z,20.23
2022-08-18T21:46:05.732Z,19.30
2022-08-18T21:48:35.415Z,19.80
2022-08-18T21:51:04.015Z,19.50
2022-08-18T21:53:33.750Z,20.40
2022-08-18T21:56:02.007Z,20.80
2022-08-18T21:58:40.073Z,20.30
2022-08-18T22:01:13.953Z,21.57
2022-08-18T22:03:54.155Z,20.37
2022-08-18T22:06:29.928Z,19.70
2022-08-18T22:09:21.623Z,19.67
2022-08-18T22:12:07.446Z,18.63
2022-08-18T22:14:53.794Z,19.40
2022-08-18T22:17:32.831Z,20.27
2022-08-18T22:20:34.316Z,19.93
2022-08-18T22:23:24.440Z,19.13
2022-08-18T22:25:52.733Z,19.67
2022-08-18T22:28:27.327Z,19.30
2022-08-18T22:30:57.103Z,20.80
2022-08-18T22:33:25.136Z,19.33
2022-08-18T22:35:56.578Z,20.50
2022-08-18T22:38:28.215Z,20.67
2022-08-18T22:40:56.702Z,19.30
2022-08-18T22:43:24.786Z,18.47
2022-08-18T22:45:52.694Z,20.00
2022-08-18T22:48:22.202Z,19.30
2022-08-18T22:50:50.180Z,22.47
2022-08-18T22:53:18.774Z,20.10
2022-08-18T22:55:47.245Z,21.00
2022-08-18T22:58:19.410Z,23.17
2022-08-18T23:00:54.266Z,21.90
2022-08-18T23:03:42.082Z,18.90
2022-08-18T23:06:11.213Z,21.77
2022-08-18T23:08:54.788Z,20.20
2022-08-18T23:11:24.989Z,21.23
2022-08-18T23:13:53.971Z,22.13
2022-08-18T23:16:31.568Z,21.00
2022-08-18T23:19:02.883Z,20.87
2022-08-18T23:21:34.634Z,21.73
2022-08-18T23:24:04.938Z,20.63
2022-08-18T23:26:33.878Z,21.23
2022-08-18T23:29:01.786Z,20.23
2022-08-18T23:31:30.235Z,21.07
2022-08-18T23:33:58.869Z,20.63
2022-08-18T23:36:28.332Z,20.30
2022-08-18T23:38:56.259Z,20.17
2022-08-18T23:41:24.508Z,20.40
2022-08-18T23:43:52.655Z,21.17
2022-08-18T23:46:23.144Z,22.27
2022-08-18T23:48:52.006Z,21.53
2022-08-18T23:51:30.300Z,20.20
2022-08-18T23:53:59.971Z,21.47
2022-08-18T23:56:29.395Z,21.33
2022-08-18T23:58:57.827Z,21.73
